Time;durP1;ratioP1;P1;durP2;ratioP2;P2;SDS_P1;SDS_P2;PMS_P1;PMS_P2;Temp;Humidity;BMP_temperature;BMP_pressure;BME280_temperature;BME280_humidity;BME280_pressure;Samples;Min_cycle;Max_cycle;Signal;HPM_P1;HPM_P2
2023/06/17 00:00:44;;;;;;;;;;;19.10;78.80;;;;;;5011620;28;87127;-53
2023/06/17 00:03:09;;;;;;;;;;;19.10;78.80;;;;;;5012168;28;90431;-48
2023/06/17 00:05:35;;;;;;;;;;;19.10;78.80;;;;;;5013731;28;88189;-51
2023/06/17 00:08:00;;;;;;;;;;;19.00;78.80;;;;;;5011664;28;87254;-49
2023/06/17 00:10:26;;;;;;;;;;;19.00;78.80;;;;;;5011628;28;89269;-48
2023/06/17 00:12:51;;;;;;;;;;;19.00;78.80;;;;;;5014427;28;89220;-50
2023/06/17 00:15:17;;;;;;;;;;;19.00;78.80;;;;;;5014134;28;87690;-51
2023/06/17 00:17:46;;;;;;;;;;;19.00;78.80;;;;;;5011622;28;88181;-47
2023/06/17 00:20:12;;;;;;;;;;;19.00;78.80;;;;;;5011585;28;86847;-51
2023/06/17 00:22:39;;;;;;;;;;;19.00;78.80;;;;;;5011473;28;89091;-52
2023/06/17 00:25:08;;;;;;;;;;;19.00;78.80;;;;;;5012050;28;88015;-47
2023/06/17 00:27:33;;;;;;;;;;;19.00;78.70;;;;;;5011711;28;86378;-49
2023/06/17 00:29:59;;;;;;;;;;;19.00;78.70;;;;;;5013574;28;87040;-50
2023/06/17 00:32:26;;;;;;;;;;;18.90;78.80;;;;;;5012457;28;88224;-49
2023/06/17 00:34:52;;;;;;;;;;;19.00;79.10;;;;;;5013497;28;88028;-48
2023/06/17 00:37:17;;;;;;;;;;;19.00;78.80;;;;;;5010333;28;88219;-47
2023/06/17 00:39:43;;;;;;;;;;;19.00;78.80;;;;;;5011652;28;87130;-50
2023/06/17 00:42:08;;;;;;;;;;;18.90;78.70;;;;;;5013879;28;87147;-48
2023/06/17 00:44:34;;;;;;;;;;;19.00;78.70;;;;;;5010645;28;88048;-47
2023/06/17 00:47:00;;;;;;;;;;;19.00;78.70;;;;;;5012180;28;87180;-53
2023/06/17 00:49:31;;;;;;;;;;;18.90;78.80;;;;;;5013311;28;88988;-48
2023/06/17 00:51:59;;;;;;;;;;;18.90;78.80;;;;;;5006542;28;86997;-48
2023/06/17 00:54:24;;;;;;;;;;;18.90;78.80;;;;;;5015989;28;87140;-46
2023/06/17 00:56:53;;;;;;;;;;;18.90;78.80;;;;;;5010287;28;88066;-52
2023/06/17 00:59:18;;;;;;;;;;;18.90;78.80;;;;;;5010174;28;88149;-48
2023/06/17 01:01:44;;;;;;;;;;;18.90;78.70;;;;;;5013143;28;88432;-51
2023/06/17 01:04:10;;;;;;;;;;;18.90;78.80;;;;;;5010343;28;88039;-48
2023/06/17 01:06:52;;;;;;;;;;;18.90;78.70;;;;;;5012153;28;87119;-50
2023/06/17 01:09:23;;;;;;;;;;;18.90;78.70;;;;;;5010664;28;87524;-48
2023/06/17 01:11:51;;;;;;;;;;;18.90;78.70;;;;;;5010201;28;88026;-49
2023/06/17 01:14:17;;;;;;;;;;;18.90;78.80;;;;;;5007529;28;87275;-53
2023/06/17 01:16:43;;;;;;;;;;;18.80;78.70;;;;;;5014821;28;87612;-52
2023/06/17 01:19:18;;;;;;;;;;;18.80;78.70;;;;;;5013346;28;87190;-49
2023/06/17 01:21:48;;;;;;;;;;;18.80;78.70;;;;;;5012241;28;88985;-50
2023/06/17 01:24:25;;;;;;;;;;;18.80;78.80;;;;;;5008674;28;89098;-50
2023/06/17 01:26:55;;;;;;;;;;;18.80;78.70;;;;;;5010427;28;87236;-51
2023/06/17 01:29:22;;;;;;;;;;;18.80;78.80;;;;;;5007571;28;88845;-53
2023/06/17 01:31:49;;;;;;;;;;;18.80;78.80;;;;;;5010873;28;88012;-49
2023/06/17 01:34:16;;;;;;;;;;;18.80;78.80;;;;;;5012769;28;87256;-48
2023/06/17 01:36:42;;;;;;;;;;;18.80;78.70;;;;;;5011135;28;87006;-52
2023/06/17 01:39:10;;;;;;;;;;;18.80;79.40;;;;;;5012783;28;88003;-51
2023/06/17 01:41:37;;;;;;;;;;;18.80;78.80;;;;;;5012947;28;88288;-51
2023/06/17 01:44:03;;;;;;;;;;;18.70;78.80;;;;;;5010722;28;88302;-48
2023/06/17 01:46:28;;;;;;;;;;;18.70;78.80;;;;;;5010638;28;87192;-52
2023/06/17 01:48:54;;;;;;;;;;;18.70;78.90;;;;;;5012100;28;88754;-50
2023/06/17 01:51:20;;;;;;;;;;;18.70;78.80;;;;;;5010698;28;88374;-51
2023/06/17 01:53:46;;;;;;;;;;;18.70;78.70;;;;;;5011121;28;87108;-50
2023/06/17 01:56:11;;;;;;;;;;;18.70;78.70;;;;;;5013337;28;88158;-50
2023/06/17 01:58:37;;;;;;;;;;;18.70;78.70;;;;;;5015111;28;87724;-49
2023/06/17 02:01:03;;;;;;;;;;;18.70;78.70;;;;;;5018726;28;87396;-54
2023/06/17 02:03:28;;;;;;;;;;;18.70;78.80;;;;;;5013415;28;88157;-51
2023/06/17 02:05:54;;;;;;;;;;;18.70;78.80;;;;;;5015938;28;86435;-47
2023/06/17 02:08:21;;;;;;;;;;;18.70;78.80;;;;;;5013718;28;87070;-49
2023/06/17 02:10:47;;;;;;;;;;;18.60;78.80;;;;;;5015576;28;87642;-47
2023/06/17 02:13:12;;;;;;;;;;;18.70;78.80;;;;;;5013606;28;88130;-48
2023/06/17 02:15:42;;;;;;;;;;;18.60;78.80;;;;;;5013881;28;89597;-49
2023/06/17 02:18:08;;;;;;;;;;;18.70;79.40;;;;;;5015382;28;89119;-49
2023/06/17 02:20:33;;;;;;;;;;;18.70;78.80;;;;;;5014402;28;87100;-51
2023/06/17 02:22:59;;;;;;;;;;;18.60;78.90;;;;;;5011388;28;87496;-49
2023/06/17 02:25:25;;;;;;;;;;;18.60;78.90;;;;;;5015534;28;87185;-49
2023/06/17 02:27:51;;;;;;;;;;;18.60;78.90;;;;;;5014224;28;87773;-50
2023/06/17 02:30:17;;;;;;;;;;;18.60;78.90;;;;;;5013600;28;87316;-49
2023/06/17 02:32:42;;;;;;;;;;;18.60;78.90;;;;;;5015905;28;87037;-50
2023/06/17 02:35:08;;;;;;;;;;;18.60;78.80;;;;;;5013882;28;87485;-48
2023/06/17 02:37:34;;;;;;;;;;;18.60;78.80;;;;;;5012352;28;90523;-46
2023/06/17 02:40:00;;;;;;;;;;;18.60;78.80;;;;;;5011165;28;88178;-46
2023/06/17 02:42:25;;;;;;;;;;;18.60;78.90;;;;;;5015010;28;87539;-48
2023/06/17 02:44:51;;;;;;;;;;;18.60;78.90;;;;;;5017093;28;88040;-48
2023/06/17 02:47:16;;;;;;;;;;;18.50;78.80;;;;;;5012838;28;86977;-50
2023/06/17 02:49:41;;;;;;;;;;;18.60;78.90;;;;;;5014506;28;88006;-47
2023/06/17 02:52:07;;;;;;;;;;;18.50;78.90;;;;;;5014481;28;87083;-49
2023/06/17 02:54:32;;;;;;;;;;;18.50;78.90;;;;;;5012370;28;87475;-52
2023/06/17 02:56:58;;;;;;;;;;;18.50;78.90;;;;;;5012837;28;88204;-50
2023/06/17 02:59:23;;;;;;;;;;;18.50;79.00;;;;;;5014007;28;87045;-49
2023/06/17 03:01:49;;;;;;;;;;;18.50;78.90;;;;;;5014836;28;88046;-47
2023/06/17 03:04:15;;;;;;;;;;;18.50;78.90;;;;;;5011584;28;88040;-50
2023/06/17 03:06:41;;;;;;;;;;;18.50;78.90;;;;;;5012967;28;87779;-48
2023/06/17 03:09:09;;;;;;;;;;;18.50;78.90;;;;;;5010655;28;88098;-47
2023/06/17 03:11:35;;;;;;;;;;;18.50;79.00;;;;;;5009101;28;86987;-48
2023/06/17 03:14:01;;;;;;;;;;;18.50;78.90;;;;;;5013808;28;87434;-50
2023/06/17 03:16:29;;;;;;;;;;;18.50;78.80;;;;;;5014626;28;88489;-49
2023/06/17 03:18:54;;;;;;;;;;;18.50;78.70;;;;;;5013150;28;86398;-49
2023/06/17 03:21:20;;;;;;;;;;;18.50;78.80;;;;;;5013522;28;86919;-49
2023/06/17 03:23:48;;;;;;;;;;;18.40;78.80;;;;;;5013624;28;89191;-49
2023/06/17 03:26:13;;;;;;;;;;;18.40;78.90;;;;;;5014901;28;88156;-48
2023/06/17 03:28:39;;;;;;;;;;;18.40;78.90;;;;;;5012740;28;88182;-46
2023/06/17 03:31:05;;;;;;;;;;;18.40;79.00;;;;;;5014701;28;87102;-49
2023/06/17 03:33:31;;;;;;;;;;;18.50;79.00;;;;;;5012827;28;87353;-49
2023/06/17 03:35:57;;;;;;;;;;;18.40;78.90;;;;;;5012948;28;88074;-48
2023/06/17 03:38:22;;;;;;;;;;;18.40;79.00;;;;;;5011384;28;87085;-50
2023/06/17 03:40:47;;;;;;;;;;;18.40;79.00;;;;;;5013664;28;87979;-48
2023/06/17 03:43:16;;;;;;;;;;;18.40;79.00;;;;;;5013684;28;87334;-49
2023/06/17 03:45:42;;;;;;;;;;;18.40;79.00;;;;;;5011693;28;87935;-49
2023/06/17 03:48:07;;;;;;;;;;;18.40;78.90;;;;;;5016700;28;87464;-50
2023/06/17 03:50:33;;;;;;;;;;;18.40;78.90;;;;;;5013068;28;88115;-47
2023/06/17 03:52:58;;;;;;;;;;;18.30;79.10;;;;;;5011748;28;88482;-48
2023/06/17 03:55:24;;;;;;;;;;;18.30;79.10;;;;;;5012204;28;88043;-47
2023/06/17 03:57:50;;;;;;;;;;;18.40;79.20;;;;;;5012683;28;87448;-50
2023/06/17 04:00:16;;;;;;;;;;;18.30;79.10;;;;;;5014205;28;89114;-48
2023/06/17 04:02:47;;;;;;;;;;;18.40;79.00;;;;;;5011584;28;86867;-46
2023/06/17 04:05:13;;;;;;;;;;;18.40;79.00;;;;;;5012041;28;87100;-49
2023/06/17 04:07:39;;;;;;;;;;;18.30;79.00;;;;;;5014477;28;87350;-50
2023/06/17 04:10:06;;;;;;;;;;;18.30;79.00;;;;;;5014637;28;88222;-47
2023/06/17 04:12:31;;;;;;;;;;;18.30;78.90;;;;;;5013532;28;88814;-47
2023/06/17 04:14:57;;;;;;;;;;;18.30;78.90;;;;;;5010463;28;88714;-47
2023/06/17 04:17:22;;;;;;;;;;;18.30;79.00;;;;;;5013081;28;87113;-49
2023/06/17 04:19:48;;;;;;;;;;;18.30;79.10;;;;;;5013095;28;87494;-49
2023/06/17 04:22:13;;;;;;;;;;;18.30;79.10;;;;;;5010841;28;89341;-47
2023/06/17 04:24:39;;;;;;;;;;;18.30;79.20;;;;;;5011316;28;87164;-47
2023/06/17 04:27:06;;;;;;;;;;;18.30;79.10;;;;;;5013127;28;87598;-49
2023/06/17 04:29:34;;;;;;;;;;;18.30;79.20;;;;;;5010673;28;88128;-47
2023/06/17 04:32:01;;;;;;;;;;;18.30;79.20;;;;;;5016161;28;86395;-49
2023/06/17 04:34:26;;;;;;;;;;;18.20;79.10;;;;;;5012710;28;89582;-46
2023/06/17 04:36:58;;;;;;;;;;;18.30;79.10;;;;;;5011092;28;87468;-51
2023/06/17 04:39:24;;;;;;;;;;;18.20;79.10;;;;;;5010117;28;88147;-50
2023/06/17 04:41:50;;;;;;;;;;;18.20;79.20;;;;;;5010531;28;89885;-51
2023/06/17 04:44:16;;;;;;;;;;;18.20;79.30;;;;;;5013320;28;87728;-50
2023/06/17 04:46:41;;;;;;;;;;;18.20;79.20;;;;;;5012381;28;89137;-49
2023/06/17 04:49:07;;;;;;;;;;;18.20;79.10;;;;;;5010715;28;88114;-51
2023/06/17 04:51:38;;;;;;;;;;;18.20;79.10;;;;;;5013371;28;88386;-52
2023/06/17 04:54:05;;;;;;;;;;;18.20;79.10;;;;;;5011800;28;87226;-49
2023/06/17 04:56:31;;;;;;;;;;;18.20;79.10;;;;;;5013802;28;86747;-52
2023/06/17 04:58:56;;;;;;;;;;;18.20;79.10;;;;;;5011863;28;87176;-47
2023/06/17 05:01:22;;;;;;;;;;;18.20;79.20;;;;;;5011214;28;88133;-50
2023/06/17 05:03:47;;;;;;;;;;;18.20;79.10;;;;;;5012713;28;88109;-50
2023/06/17 05:06:13;;;;;;;;;;;18.20;79.10;;;;;;5011267;28;88326;-50
2023/06/17 05:08:38;;;;;;;;;;;18.20;79.10;;;;;;5011246;28;87944;-49
2023/06/17 05:11:04;;;;;;;;;;;18.20;79.20;;;;;;5009590;28;87115;-49
2023/06/17 05:13:29;;;;;;;;;;;18.20;79.20;;;;;;5015678;28;87674;-48
2023/06/17 05:15:55;;;;;;;;;;;18.20;79.10;;;;;;5012276;28;87134;-51
2023/06/17 05:18:20;;;;;;;;;;;18.20;79.20;;;;;;5010528;28;87007;-49
2023/06/17 05:20:46;;;;;;;;;;;18.10;79.20;;;;;;5013271;28;87838;-49
2023/06/17 05:23:11;;;;;;;;;;;18.20;79.20;;;;;;5011949;28;87119;-52
2023/06/17 05:25:37;;;;;;;;;;;18.20;79.20;;;;;;5010789;28;87522;-52
2023/06/17 05:28:05;;;;;;;;;;;18.20;79.20;;;;;;5009321;28;88235;-50
2023/06/17 05:30:31;;;;;;;;;;;18.20;79.20;;;;;;5013773;28;87146;-53
2023/06/17 05:32:57;;;;;;;;;;;18.10;79.20;;;;;;5016583;28;89186;-52
2023/06/17 05:35:22;;;;;;;;;;;18.10;79.10;;;;;;5016903;28;87246;-52
2023/06/17 05:37:48;;;;;;;;;;;18.10;79.10;;;;;;5014967;28;88757;-50
2023/06/17 05:40:14;;;;;;;;;;;18.10;79.20;;;;;;5012237;28;88716;-50
2023/06/17 05:42:39;;;;;;;;;;;18.10;79.20;;;;;;5016630;28;87273;-54
2023/06/17 05:45:05;;;;;;;;;;;18.10;79.20;;;;;;5015174;28;87465;-49
2023/06/17 05:47:30;;;;;;;;;;;18.10;79.20;;;;;;5013575;28;88349;-53
2023/06/17 05:49:56;;;;;;;;;;;18.10;79.30;;;;;;5016115;28;87221;-49
2023/06/17 05:52:21;;;;;;;;;;;18.10;79.20;;;;;;5013882;28;88003;-50
2023/06/17 05:54:47;;;;;;;;;;;18.00;79.90;;;;;;5014667;28;87514;-55
2023/06/17 05:57:12;;;;;;;;;;;18.00;79.30;;;;;;5016478;28;87401;-53
2023/06/17 05:59:38;;;;;;;;;;;18.00;79.30;;;;;;5015210;28;88220;-49
2023/06/17 06:02:03;;;;;;;;;;;18.00;79.30;;;;;;5015583;28;87077;-48
2023/06/17 06:04:29;;;;;;;;;;;18.10;79.30;;;;;;5013029;28;88821;-48
2023/06/17 06:06:55;;;;;;;;;;;18.00;79.30;;;;;;5015082;28;89223;-47
2023/06/17 06:09:20;;;;;;;;;;;18.00;79.30;;;;;;5014924;28;86562;-46
2023/06/17 06:11:46;;;;;;;;;;;18.00;79.30;;;;;;5011919;28;87030;-52
2023/06/17 06:14:12;;;;;;;;;;;18.00;79.20;;;;;;5015266;28;89219;-53
2023/06/17 06:16:37;;;;;;;;;;;18.00;79.20;;;;;;5014043;28;88098;-49
2023/06/17 06:19:02;;;;;;;;;;;18.00;79.20;;;;;;5015988;28;88718;-47
2023/06/17 06:21:28;;;;;;;;;;;18.00;79.20;;;;;;5009139;28;87029;-52
2023/06/17 06:23:54;;;;;;;;;;;18.00;79.20;;;;;;5014373;28;88862;-47
2023/06/17 06:26:20;;;;;;;;;;;18.00;79.20;;;;;;5012246;28;90934;-47
2023/06/17 06:28:46;;;;;;;;;;;18.00;79.20;;;;;;5013038;28;86959;-48
2023/06/17 06:31:11;;;;;;;;;;;18.00;79.20;;;;;;5014948;28;87449;-47
2023/06/17 06:33:37;;;;;;;;;;;18.00;79.20;;;;;;5015606;28;87256;-47
2023/06/17 06:36:02;;;;;;;;;;;18.00;79.10;;;;;;5012899;28;87187;-54
2023/06/17 06:38:28;;;;;;;;;;;18.00;79.30;;;;;;5014899;28;87268;-51
2023/06/17 06:40:54;;;;;;;;;;;18.00;79.20;;;;;;5012017;28;89110;-48
2023/06/17 06:43:20;;;;;;;;;;;18.00;79.20;;;;;;5015539;28;88463;-47
2023/06/17 06:45:45;;;;;;;;;;;18.00;79.30;;;;;;5011702;28;90514;-49
2023/06/17 06:48:12;;;;;;;;;;;18.00;79.30;;;;;;5013520;28;87035;-48
2023/06/17 06:50:37;;;;;;;;;;;18.00;79.30;;;;;;5015459;28;87376;-53
2023/06/17 06:53:03;;;;;;;;;;;18.00;79.30;;;;;;5013170;28;88066;-51
2023/06/17 06:55:29;;;;;;;;;;;18.00;79.40;;;;;;5012293;28;87086;-52
2023/06/17 06:57:55;;;;;;;;;;;18.00;79.40;;;;;;5013274;28;87029;-54
2023/06/17 07:00:21;;;;;;;;;;;18.00;79.20;;;;;;5014453;28;88135;-50
2023/06/17 07:02:47;;;;;;;;;;;18.00;79.30;;;;;;5017440;28;87053;-50
2023/06/17 07:05:12;;;;;;;;;;;18.00;79.40;;;;;;5011496;28;87979;-49
2023/06/17 07:07:38;;;;;;;;;;;18.00;79.40;;;;;;5014584;28;87115;-50
2023/06/17 07:10:03;;;;;;;;;;;17.90;79.40;;;;;;5011377;28;87615;-47
2023/06/17 07:12:29;;;;;;;;;;;17.90;79.40;;;;;;5014931;28;87693;-52
2023/06/17 07:14:55;;;;;;;;;;;17.90;79.30;;;;;;5012788;28;87131;-50
2023/06/17 07:17:20;;;;;;;;;;;18.00;79.40;;;;;;5013644;28;87497;-50
2023/06/17 07:19:46;;;;;;;;;;;17.90;79.40;;;;;;5014894;28;88107;-50
2023/06/17 07:22:12;;;;;;;;;;;17.90;79.40;;;;;;5015700;28;86378;-50
2023/06/17 07:24:37;;;;;;;;;;;17.90;79.40;;;;;;5013411;28;88167;-46
2023/06/17 07:27:03;;;;;;;;;;;17.90;79.40;;;;;;5011446;28;87592;-49
2023/06/17 07:29:30;;;;;;;;;;;17.90;79.40;;;;;;5014291;28;87910;-49
2023/06/17 07:31:55;;;;;;;;;;;17.90;79.40;;;;;;5012906;28;89313;-48
2023/06/17 07:34:21;;;;;;;;;;;17.90;79.40;;;;;;5012223;28;87118;-51
2023/06/17 07:36:52;;;;;;;;;;;18.00;79.40;;;;;;5014663;28;87489;-51
2023/06/17 07:39:18;;;;;;;;;;;18.00;79.30;;;;;;5013395;28;89129;-49
2023/06/17 07:41:44;;;;;;;;;;;18.00;79.40;;;;;;5011940;28;87387;-47
2023/06/17 07:44:09;;;;;;;;;;;18.00;79.30;;;;;;5014578;28;89405;-51
2023/06/17 07:46:35;;;;;;;;;;;18.00;79.30;;;;;;5013362;28;86312;-46
2023/06/17 07:49:00;;;;;;;;;;;17.90;79.30;;;;;;5014195;28;87672;-50
2023/06/17 07:51:26;;;;;;;;;;;17.90;79.40;;;;;;5011678;28;88084;-47
2023/06/17 07:53:51;;;;;;;;;;;18.00;79.20;;;;;;5012086;28;87995;-50
2023/06/17 07:56:18;;;;;;;;;;;18.00;79.20;;;;;;5011759;28;89554;-51
2023/06/17 07:58:44;;;;;;;;;;;18.00;79.10;;;;;;5007770;28;88170;-49
2023/06/17 08:01:10;;;;;;;;;;;18.00;79.20;;;;;;5012548;28;87202;-50
2023/06/17 08:03:35;;;;;;;;;;;18.00;79.10;;;;;;5014095;28;88646;-51
2023/06/17 08:06:01;;;;;;;;;;;18.00;79.20;;;;;;5010320;28;89375;-49
2023/06/17 08:08:26;;;;;;;;;;;18.00;79.30;;;;;;5013005;28;87586;-48
2023/06/17 08:10:52;;;;;;;;;;;18.00;79.30;;;;;;5006938;28;87270;-47
2023/06/17 08:13:18;;;;;;;;;;;18.00;79.50;;;;;;5013728;28;87487;-50
2023/06/17 08:15:43;;;;;;;;;;;18.00;79.30;;;;;;5012726;28;87462;-47
2023/06/17 08:18:09;;;;;;;;;;;18.00;79.30;;;;;;5011019;28;89069;-48
2023/06/17 08:20:36;;;;;;;;;;;18.00;79.40;;;;;;5013806;28;87378;-48
2023/06/17 08:23:02;;;;;;;;;;;18.00;79.40;;;;;;5012230;28;88885;-48
2023/06/17 08:25:28;;;;;;;;;;;18.00;79.40;;;;;;5009766;28;90966;-49
2023/06/17 08:27:53;;;;;;;;;;;18.00;79.40;;;;;;5013570;28;87963;-48
2023/06/17 08:30:19;;;;;;;;;;;18.00;79.50;;;;;;5012850;28;87201;-51
2023/06/17 08:32:44;;;;;;;;;;;18.00;79.50;;;;;;5013478;28;86984;-48
2023/06/17 08:35:10;;;;;;;;;;;18.00;79.60;;;;;;5011486;28;88525;-50
2023/06/17 08:37:35;;;;;;;;;;;18.00;79.50;;;;;;5012649;28;87189;-49
2023/06/17 08:40:04;;;;;;;;;;;18.00;79.60;;;;;;5012334;28;87246;-52
2023/06/17 08:42:30;;;;;;;;;;;17.90;79.60;;;;;;5008846;28;88802;-48
2023/06/17 08:44:58;;;;;;;;;;;17.90;79.60;;;;;;5011505;28;87715;-47
2023/06/17 08:47:24;;;;;;;;;;;17.90;79.70;;;;;;5011161;28;87137;-50
2023/06/17 08:49:50;;;;;;;;;;;17.90;79.70;;;;;;5016309;28;87234;-47
2023/06/17 08:52:15;;;;;;;;;;;17.90;79.70;;;;;;5012035;28;87198;-49
2023/06/17 08:54:41;;;;;;;;;;;17.90;79.80;;;;;;5011183;28;87121;-47
2023/06/17 08:57:12;;;;;;;;;;;17.90;79.80;;;;;;5009949;28;87240;-50
2023/06/17 08:59:38;;;;;;;;;;;17.90;79.80;;;;;;5012105;28;86414;-50
2023/06/17 09:02:04;;;;;;;;;;;17.90;79.80;;;;;;5013644;28;87520;-49
2023/06/17 09:04:30;;;;;;;;;;;17.90;79.80;;;;;;5009657;28;87609;-49
2023/06/17 09:06:56;;;;;;;;;;;17.90;79.80;;;;;;5011219;28;88179;-49
2023/06/17 09:09:21;;;;;;;;;;;17.90;79.80;;;;;;5015782;28;89875;-53
2023/06/17 09:11:50;;;;;;;;;;;17.80;79.80;;;;;;5007778;28;87206;-49
2023/06/17 09:14:16;;;;;;;;;;;17.90;79.90;;;;;;5012731;28;87014;-52
2023/06/17 09:16:43;;;;;;;;;;;17.90;79.80;;;;;;5010115;28;88123;-50
2023/06/17 09:19:09;;;;;;;;;;;17.90;79.80;;;;;;5012415;28;87102;-49
2023/06/17 09:21:35;;;;;;;;;;;17.90;79.80;;;;;;5012540;28;87401;-49
2023/06/17 09:24:04;;;;;;;;;;;17.90;79.80;;;;;;5010621;28;87468;-52
2023/06/17 09:26:30;;;;;;;;;;;17.90;79.90;;;;;;5010907;28;87113;-52
2023/06/17 09:29:03;;;;;;;;;;;17.90;79.80;;;;;;5010956;28;87398;-48
2023/06/17 09:31:33;;;;;;;;;;;17.90;79.80;;;;;;5010157;28;89018;-52
2023/06/17 09:34:02;;;;;;;;;;;17.90;79.80;;;;;;5010482;28;88406;-51
2023/06/17 09:36:28;;;;;;;;;;;17.90;79.80;;;;;;5007206;28;88035;-52
2023/06/17 09:38:54;;;;;;;;;;;17.90;79.80;;;;;;5011315;28;87164;-52
2023/06/17 09:41:20;;;;;;;;;;;17.90;79.80;;;;;;5010397;28;87425;-51
2023/06/17 09:43:52;;;;;;;;;;;17.80;79.80;;;;;;5012129;28;90041;-52
2023/06/17 09:46:35;;;;;;;;;;;17.90;79.90;;;;;;5012315;28;87217;-50
2023/06/17 09:49:02;;;;;;;;;;;17.90;79.90;;;;;;5011338;28;88292;-47
2023/06/17 09:51:37;;;;;;;;;;;17.90;80.00;;;;;;5009767;28;88018;-48
2023/06/17 09:54:04;;;;;;;;;;;17.80;80.00;;;;;;5012860;28;87045;-49
2023/06/17 09:56:33;;;;;;;;;;;17.90;80.00;;;;;;5010553;28;89877;-50
2023/06/17 09:58:59;;;;;;;;;;;17.90;80.00;;;;;;5010859;28;87089;-50
2023/06/17 10:01:30;;;;;;;;;;;17.90;80.00;;;;;;5012940;28;87550;-49
2023/06/17 10:04:02;;;;;;;;;;;17.90;80.00;;;;;;5010950;28;88186;-49
2023/06/17 10:06:29;;;;;;;;;;;17.90;80.10;;;;;;5010242;28;87114;-50
2023/06/17 10:08:55;;;;;;;;;;;17.90;80.10;;;;;;5011733;28;87363;-48
2023/06/17 10:11:22;;;;;;;;;;;17.90;80.10;;;;;;5010932;28;89279;-48
2023/06/17 10:13:52;;;;;;;;;;;17.90;80.10;;;;;;5008805;28;86987;-48
2023/06/17 10:16:18;;;;;;;;;;;17.90;80.10;;;;;;5015782;28;86943;-48
2023/06/17 10:18:47;;;;;;;;;;;17.80;80.00;;;;;;5015932;28;87275;-51
2023/06/17 10:21:13;;;;;;;;;;;17.90;80.10;;;;;;5013152;28;88100;-47
2023/06/17 10:23:39;;;;;;;;;;;17.90;80.10;;;;;;5013704;28;87995;-46
2023/06/17 10:26:06;;;;;;;;;;;17.90;80.10;;;;;;5015328;28;87107;-53
2023/06/17 10:28:44;;;;;;;;;;;17.80;80.00;;;;;;5011208;28;89059;-52
2023/06/17 10:31:21;;;;;;;;;;;17.90;80.00;;;;;;5015447;28;88143;-47
2023/06/17 10:33:47;;;;;;;;;;;17.90;80.10;;;;;;5015552;28;87170;-49
2023/06/17 10:36:14;;;;;;;;;;;17.90;80.10;;;;;;5009461;28;87467;-51
2023/06/17 10:38:39;;;;;;;;;;;17.80;80.10;;;;;;5017198;28;87294;-49
2023/06/17 10:41:05;;;;;;;;;;;17.80;80.20;;;;;;5015355;28;87036;-46
2023/06/17 10:43:37;;;;;;;;;;;17.80;80.10;;;;;;5007164;28;89361;-46
2023/06/17 10:46:03;;;;;;;;;;;17.80;80.10;;;;;;5014081;28;88109;-54
2023/06/17 10:48:30;;;;;;;;;;;17.80;80.20;;;;;;5013038;28;88440;-50
2023/06/17 10:51:00;;;;;;;;;;;17.80;80.20;;;;;;5013981;28;89566;-48
2023/06/17 10:53:35;;;;;;;;;;;17.80;80.20;;;;;;5015060;28;87149;-49
2023/06/17 10:56:01;;;;;;;;;;;17.80;80.10;;;;;;5013936;28;89398;-48
2023/06/17 10:58:31;;;;;;;;;;;17.80;80.20;;;;;;5010285;28;88050;-48
2023/06/17 11:00:57;;;;;;;;;;;17.80;80.20;;;;;;5012948;28;87131;-48
2023/06/17 11:03:22;;;;;;;;;;;17.80;80.20;;;;;;5013721;28;87424;-48
2023/06/17 11:05:50;;;;;;;;;;;17.80;80.20;;;;;;5015058;28;87245;-48
2023/06/17 11:08:15;;;;;;;;;;;17.80;80.20;;;;;;5013063;28;88796;-48
2023/06/17 11:10:41;;;;;;;;;;;17.80;80.30;;;;;;5010616;28;92100;-47
2023/06/17 11:13:06;;;;;;;;;;;17.80;80.20;;;;;;5011964;28;87073;-52
2023/06/17 11:15:32;;;;;;;;;;;17.80;80.20;;;;;;5014646;28;87710;-49
2023/06/17 11:17:58;;;;;;;;;;;17.80;80.20;;;;;;5013824;28;89205;-47
2023/06/17 11:20:23;;;;;;;;;;;17.80;80.30;;;;;;5014983;28;87454;-50
2023/06/17 11:22:49;;;;;;;;;;;17.80;80.20;;;;;;5014290;28;88153;-48
2023/06/17 11:25:16;;;;;;;;;;;17.80;80.30;;;;;;5013682;28;87171;-48
2023/06/17 11:27:43;;;;;;;;;;;17.80;80.30;;;;;;5010823;28;88267;-48
2023/06/17 11:30:09;;;;;;;;;;;17.80;80.30;;;;;;5012268;28;88172;-50
2023/06/17 11:32:35;;;;;;;;;;;17.80;80.40;;;;;;5013324;28;86991;-49
2023/06/17 11:35:01;;;;;;;;;;;17.80;80.40;;;;;;5014180;28;88019;-49
2023/06/17 11:37:26;;;;;;;;;;;17.80;80.30;;;;;;5012144;28;89535;-49
2023/06/17 11:39:56;;;;;;;;;;;17.70;80.40;;;;;;5012397;28;87101;-50
2023/06/17 11:42:21;;;;;;;;;;;17.80;80.40;;;;;;5014994;28;87870;-49
2023/06/17 11:44:47;;;;;;;;;;;17.70;80.30;;;;;;5013721;28;87102;-48
2023/06/17 11:47:13;;;;;;;;;;;17.80;80.40;;;;;;5014041;28;87699;-48
2023/06/17 11:49:45;;;;;;;;;;;17.80;80.40;;;;;;5011556;28;88312;-47
2023/06/17 11:52:11;;;;;;;;;;;17.80;80.40;;;;;;5013260;28;86382;-48
2023/06/17 11:54:48;;;;;;;;;;;17.80;80.40;;;;;;5014580;28;86993;-50
2023/06/17 11:57:23;;;;;;;;;;;17.80;80.40;;;;;;5012335;28;89777;-50
2023/06/17 11:59:49;;;;;;;;;;;17.70;80.40;;;;;;5008331;28;88033;-48
2023/06/17 12:02:15;;;;;;;;;;;17.80;80.40;;;;;;5012311;28;90261;-48
2023/06/17 12:04:44;;;;;;;;;;;17.80;80.40;;;;;;5016798;28;88199;-48
2023/06/17 12:07:10;;;;;;;;;;;17.80;80.40;;;;;;5012367;28;88719;-49
2023/06/17 12:09:36;;;;;;;;;;;17.70;80.40;;;;;;5011709;28;88316;-53
2023/06/17 12:12:01;;;;;;;;;;;17.80;80.40;;;;;;5014032;28;87119;-50
2023/06/17 12:14:27;;;;;;;;;;;17.80;80.40;;;;;;5010961;28;88977;-46
2023/06/17 12:16:53;;;;;;;;;;;17.80;80.40;;;;;;5011996;28;88407;-49
2023/06/17 12:19:22;;;;;;;;;;;17.70;80.30;;;;;;5014080;28;87168;-50
2023/06/17 12:21:47;;;;;;;;;;;17.70;80.30;;;;;;5012340;28;88907;-47
2023/06/17 12:24:16;;;;;;;;;;;17.80;80.50;;;;;;5010991;28;88898;-48
2023/06/17 12:26:43;;;;;;;;;;;17.70;80.50;;;;;;5010789;28;87203;-49
2023/06/17 12:29:11;;;;;;;;;;;17.70;80.30;;;;;;5010084;28;89382;-48
2023/06/17 12:31:36;;;;;;;;;;;17.70;80.40;;;;;;5011186;28;87146;-49
2023/06/17 12:34:03;;;;;;;;;;;17.80;80.40;;;;;;5013529;28;88903;-48
2023/06/17 12:36:30;;;;;;;;;;;17.80;80.40;;;;;;5012444;28;87157;-47
2023/06/17 12:38:56;;;;;;;;;;;17.70;80.40;;;;;;5010583;28;87915;-48
2023/06/17 12:41:21;;;;;;;;;;;17.70;80.40;;;;;;5013389;28;86936;-47
2023/06/17 12:43:47;;;;;;;;;;;17.70;80.40;;;;;;5007665;28;90047;-47
2023/06/17 12:46:14;;;;;;;;;;;17.70;80.40;;;;;;5013184;28;87359;-48
2023/06/17 12:48:41;;;;;;;;;;;17.70;80.40;;;;;;5013296;28;88074;-50
2023/06/17 12:51:07;;;;;;;;;;;17.70;80.40;;;;;;5011999;28;86981;-50
2023/06/17 12:53:33;;;;;;;;;;;17.70;80.40;;;;;;5013621;28;86962;-52
2023/06/17 12:55:58;;;;;;;;;;;17.70;80.30;;;;;;5011329;28;87590;-53
2023/06/17 12:58:24;;;;;;;;;;;17.70;80.30;;;;;;5010899;28;87208;-49
2023/06/17 13:00:53;;;;;;;;;;;17.70;80.30;;;;;;5010770;28;87361;-51
2023/06/17 13:03:19;;;;;;;;;;;17.70;80.40;;;;;;5012261;28;88034;-51
2023/06/17 13:05:48;;;;;;;;;;;17.70;80.40;;;;;;5013061;28;86563;-48
2023/06/17 13:08:14;;;;;;;;;;;17.70;80.40;;;;;;5010523;28;87208;-51
2023/06/17 13:10:39;;;;;;;;;;;17.70;80.40;;;;;;5015021;28;87988;-53
2023/06/17 13:13:06;;;;;;;;;;;17.70;80.40;;;;;;5009570;28;87835;-51
2023/06/17 13:15:31;;;;;;;;;;;17.70;80.50;;;;;;5012253;28;88009;-50
2023/06/17 13:17:57;;;;;;;;;;;17.70;80.40;;;;;;5010548;28;87181;-51
2023/06/17 13:20:22;;;;;;;;;;;17.70;80.60;;;;;;5010692;28;87953;-54
2023/06/17 13:22:48;;;;;;;;;;;17.70;80.60;;;;;;5011400;28;91438;-49
2023/06/17 13:25:14;;;;;;;;;;;17.70;80.50;;;;;;5011505;28;87155;-51
2023/06/17 13:27:39;;;;;;;;;;;17.70;80.40;;;;;;5010914;28;88710;-46
2023/06/17 13:30:05;;;;;;;;;;;17.70;80.40;;;;;;5013110;28;87219;-49
2023/06/17 13:32:31;;;;;;;;;;;17.70;80.50;;;;;;5012251;28;87094;-50
2023/06/17 13:34:56;;;;;;;;;;;17.60;80.40;;;;;;5011844;28;88667;-53
2023/06/17 13:37:22;;;;;;;;;;;17.70;80.50;;;;;;5009735;28;88128;-49
2023/06/17 13:39:48;;;;;;;;;;;17.70;80.40;;;;;;5011952;28;87456;-50
2023/06/17 13:42:13;;;;;;;;;;;17.70;80.50;;;;;;5011857;28;87893;-53
2023/06/17 13:44:39;;;;;;;;;;;17.70;80.60;;;;;;5011448;28;87030;-49
2023/06/17 13:47:05;;;;;;;;;;;17.70;80.60;;;;;;5010091;28;88474;-46
2023/06/17 13:49:34;;;;;;;;;;;17.70;80.60;;;;;;5010734;28;89734;-50
2023/06/17 13:52:01;;;;;;;;;;;17.60;80.50;;;;;;5018659;28;87287;-49
2023/06/17 13:54:27;;;;;;;;;;;17.70;80.60;;;;;;5014404;28;87393;-49
2023/06/17 13:56:52;;;;;;;;;;;17.70;80.60;;;;;;5014139;28;87404;-51
2023/06/17 13:59:18;;;;;;;;;;;17.70;80.60;;;;;;5014491;28;87536;-49
2023/06/17 14:01:43;;;;;;;;;;;17.60;80.50;;;;;;5013239;28;89026;-49
2023/06/17 14:04:10;;;;;;;;;;;17.70;80.60;;;;;;5014393;28;87137;-47
2023/06/17 14:06:37;;;;;;;;;;;17.70;80.70;;;;;;5015843;28;88951;-50
2023/06/17 14:09:05;;;;;;;;;;;17.60;80.50;;;;;;5013511;28;89984;-47
2023/06/17 14:11:37;;;;;;;;;;;17.70;80.60;;;;;;5013529;28;87089;-50